Terminal Aerodrome Forecast
Issued by NWS Newport/Morehead City, NC

Home | Current Version | Previous Version | Text Only | Print | Product List | Glossary Off
Versions: 1 2 3 4 5 6 7 8 9 10 11 12 13 14 15 16 17 18 19

000
FTUS42 KMHX 281720
TAFEWN
TAF
KEWN 281720Z 2818/2918 20010KT P6SM BKN040
     FM281900 20008KT P6SM FEW040
     FM290600 20007KT P6SM SCT004 BKN007
     FM291300 21008KT P6SM SCT010=

USA.gov is the U.S. government's official web portal to all federal, state and local government web resources and services.